Terminal Aerodrome Forecast
Issued by NWS

Home | Current Version | Previous Version | Text Only | Print | Product List | Glossary On
Versions: 1 2 3 4 5 6 7 8 9 10 11 12 13 14 15 16 17 18 19 20 21
250
FTUS41 KALY 292023 AAB
TAFPSF
TAF AMD
KPSF 292023Z 2920/3018 VRB06KT P6SM SCT040 BKN080
     FM292300 16004KT P6SM VCTS SCT015 BKN040CB
      TEMPO 3001/3003 VRB10G25KT 3SM TSRA OVC015CB
     FM300400 VRB03KT P6SM VCSH SCT007 OVC015
     FM300800 VRB03KT 6SM -SHRA BR SCT007 OVC015
     FM301500 24006KT P6SM SCT010 OVC040=

USA.gov is the U.S. government's official web portal to all federal, state and local government web resources and services.